Time;durP1;ratioP1;P1;durP2;ratioP2;P2;SDS_P1;SDS_P2;PMS_P1;PMS_P2;Temp;Humidity;BMP_temperature;BMP_pressure;BME280_temperature;BME280_humidity;BME280_pressure;Samples;Min_cycle;Max_cycle;Signal;HPM_P1;HPM_P2
2022/08/30 00:03:05;;;;;;;1.00;0.90;;;14.70;99.90;;;;;;5008973;28;20496;-62
2022/08/30 00:05:32;;;;;;;1.90;1.17;;;14.50;99.90;;;;;;5007240;28;20223;-62
2022/08/30 00:07:57;;;;;;;1.10;1.00;;;14.50;99.90;;;;;;5015183;28;20404;-62
2022/08/30 00:10:24;;;;;;;1.40;1.17;;;14.40;99.90;;;;;;5025163;28;20042;-63
2022/08/30 00:12:50;;;;;;;1.35;1.10;;;14.40;99.90;;;;;;4996878;28;20380;-63
2022/08/30 00:15:17;;;;;;;1.25;1.10;;;14.40;99.90;;;;;;4986996;28;20045;-63
2022/08/30 00:17:44;;;;;;;1.65;1.55;;;14.40;99.90;;;;;;5005994;28;20053;-63
2022/08/30 00:20:13;;;;;;;2.15;1.98;;;14.30;99.90;;;;;;5003699;28;20053;-63
2022/08/30 00:22:39;;;;;;;2.30;2.10;;;14.30;99.90;;;;;;5007259;28;20053;-62
2022/08/30 00:25:06;;;;;;;2.33;2.13;;;14.30;99.90;;;;;;4973638;28;20053;-63
2022/08/30 00:27:32;;;;;;;1.85;1.75;;;14.20;99.90;;;;;;5025405;28;20045;-63
2022/08/30 00:29:58;;;;;;;1.77;1.67;;;14.20;99.90;;;;;;5003080;28;20454;-63
2022/08/30 00:32:24;;;;;;;1.70;1.60;;;14.20;99.90;;;;;;5005330;28;20500;-63
2022/08/30 00:34:51;;;;;;;1.75;1.65;;;14.20;99.90;;;;;;5003862;28;20060;-63
2022/08/30 00:37:18;;;;;;;1.58;1.48;;;14.20;99.90;;;;;;5013929;28;20053;-63
2022/08/30 00:39:44;;;;;;;1.50;1.40;;;14.10;99.90;;;;;;5009945;28;20057;-63
2022/08/30 00:42:12;;;;;;;1.42;1.33;;;14.10;99.90;;;;;;5015244;28;20052;-63
2022/08/30 00:44:40;;;;;;;1.35;1.25;;;14.10;99.90;;;;;;5008611;28;20045;-63
2022/08/30 00:47:05;;;;;;;1.10;1.10;;;14.10;99.90;;;;;;5001933;28;20141;-63
2022/08/30 00:49:33;;;;;;;1.30;1.00;;;14.10;99.90;;;;;;5008084;28;20091;-63
2022/08/30 00:52:00;;;;;;;1.10;1.00;;;14.10;99.90;;;;;;5009422;28;20137;-63
2022/08/30 00:54:27;;;;;;;0.80;0.80;;;14.10;99.90;;;;;;5004123;28;20530;-63
2022/08/30 00:56:54;;;;;;;0.80;0.80;;;14.00;99.90;;;;;;5010194;28;20123;-63
2022/08/30 00:59:23;;;;;;;1.15;1.10;;;14.00;99.90;;;;;;5007273;28;20074;-63
2022/08/30 01:01:49;;;;;;;0.88;0.88;;;14.00;99.90;;;;;;4990528;28;20050;-63
2022/08/30 01:04:18;;;;;;;1.40;1.23;;;14.00;99.90;;;;;;5000565;28;20053;-63
2022/08/30 01:06:45;;;;;;;1.20;1.10;;;14.00;99.90;;;;;;4999623;28;20133;-63
2022/08/30 01:09:12;;;;;;;1.40;1.30;;;14.00;99.90;;;;;;5010633;28;20092;-64
2022/08/30 01:11:41;;;;;;;2.20;1.70;;;14.00;99.90;;;;;;5015545;28;20045;-63
2022/08/30 01:14:10;;;;;;;1.88;1.67;;;13.90;99.90;;;;;;5010704;28;20544;-63
2022/08/30 01:16:38;;;;;;;2.97;2.35;;;14.00;99.90;;;;;;4988642;28;20111;-63
2022/08/30 01:19:08;;;;;;;2.58;1.80;;;13.90;99.90;;;;;;5004871;28;20041;-63
2022/08/30 01:21:34;;;;;;;1.73;1.60;;;14.00;99.90;;;;;;5009201;28;20041;-62
2022/08/30 01:24:01;;;;;;;1.90;1.55;;;14.00;99.90;;;;;;5020022;28;20049;-63
2022/08/30 01:26:28;;;;;;;1.92;1.70;;;14.00;99.90;;;;;;5007370;28;20080;-63
2022/08/30 01:28:58;;;;;;;2.53;2.33;;;14.00;99.90;;;;;;5006497;28;20127;-62
2022/08/30 01:31:25;;;;;;;2.50;2.30;;;14.00;99.90;;;;;;5004948;28;20377;-63
2022/08/30 01:33:51;;;;;;;3.30;2.20;;;14.00;99.90;;;;;;5009643;28;20050;-62
2022/08/30 01:36:19;;;;;;;3.58;2.85;;;14.00;99.90;;;;;;5004773;28;20104;-63
2022/08/30 01:38:51;;;;;;;3.97;3.10;;;14.00;99.90;;;;;;4990439;28;20057;-63
2022/08/30 01:41:29;;;;;;;5.65;3.28;;;14.10;99.90;;;;;;5002626;28;20053;-63
2022/08/30 01:43:57;;;;;;;5.68;3.50;;;14.10;99.90;;;;;;5006206;28;20120;-63
2022/08/30 01:46:26;;;;;;;6.10;3.38;;;14.10;99.90;;;;;;5009765;28;20060;-63
2022/08/30 01:48:55;;;;;;;3.83;3.15;;;14.10;99.90;;;;;;5004968;28;20037;-62
2022/08/30 01:51:23;;;;;;;5.57;3.50;;;14.10;99.90;;;;;;5007019;28;20052;-63
2022/08/30 01:53:49;;;;;;;4.43;3.58;;;14.10;99.90;;;;;;5003735;28;20389;-63
2022/08/30 01:56:15;;;;;;;6.28;2.60;;;14.20;99.90;;;;;;4990578;28;20060;-62
2022/08/30 01:58:41;;;;;;;2.63;2.22;;;14.20;99.90;;;;;;5002333;28;20045;-63
2022/08/30 02:01:11;;;;;;;3.70;2.00;;;14.20;99.90;;;;;;5001178;28;20073;-63
2022/08/30 02:03:38;;;;;;;2.13;1.83;;;14.20;99.90;;;;;;5002523;28;20550;-62
2022/08/30 02:06:06;;;;;;;3.38;1.70;;;14.10;99.90;;;;;;4974882;28;20426;-63
2022/08/30 02:08:32;;;;;;;2.65;1.90;;;14.10;99.90;;;;;;5003939;28;20049;-63
2022/08/30 02:10:58;;;;;;;3.17;1.90;;;14.10;99.90;;;;;;5006968;28;20041;-63
2022/08/30 02:13:25;;;;;;;4.53;2.00;;;14.10;99.90;;;;;;5008886;28;20049;-63
2022/08/30 02:15:53;;;;;;;4.32;2.45;;;14.10;99.90;;;;;;5004525;28;20049;-63
2022/08/30 02:18:20;;;;;;;3.42;2.50;;;14.00;99.90;;;;;;4990625;28;20076;-67
2022/08/30 02:20:46;;;;;;;3.70;2.33;;;14.00;99.90;;;;;;5009354;28;20096;-62
2022/08/30 02:23:11;;;;;;;6.20;2.78;;;14.00;99.90;;;;;;5007880;28;20049;-63
2022/08/30 02:25:37;;;;;;;4.70;2.47;;;14.00;99.90;;;;;;5009954;28;20057;-63
2022/08/30 02:28:04;;;;;;;3.00;2.22;;;14.00;99.90;;;;;;5023033;28;20073;-63
2022/08/30 02:30:30;;;;;;;2.65;2.20;;;14.00;99.90;;;;;;5005529;28;20539;-62
2022/08/30 02:32:56;;;;;;;5.32;2.60;;;14.00;99.90;;;;;;5004303;28;20187;-63
2022/08/30 02:35:22;;;;;;;2.50;2.30;;;14.00;99.90;;;;;;4992543;28;20492;-63
2022/08/30 02:37:48;;;;;;;3.03;2.70;;;14.00;99.90;;;;;;5008064;28;20068;-63
2022/08/30 02:40:14;;;;;;;5.00;3.20;;;14.10;99.90;;;;;;5010494;28;20057;-63
2022/08/30 02:42:40;;;;;;;6.95;3.45;;;14.00;99.90;;;;;;5012879;28;20041;-63
2022/08/30 02:45:07;;;;;;;3.42;2.88;;;14.00;99.90;;;;;;4993372;28;20152;-63
2022/08/30 02:47:33;;;;;;;5.25;3.50;;;14.00;99.90;;;;;;4989471;28;20049;-63
2022/08/30 02:50:00;;;;;;;4.10;3.00;;;14.10;99.90;;;;;;5007242;28;20175;-63
2022/08/30 02:52:26;;;;;;;7.63;4.40;;;14.10;99.90;;;;;;5011680;28;20566;-63
2022/08/30 02:54:53;;;;;;;5.25;3.60;;;14.10;99.90;;;;;;4977013;28;20058;-62
2022/08/30 02:57:19;;;;;;;5.43;4.05;;;14.10;99.90;;;;;;4994789;28;20132;-62
2022/08/30 02:59:46;;;;;;;5.18;4.25;;;14.10;99.90;;;;;;4989626;28;20057;-63
2022/08/30 03:02:12;;;;;;;8.43;5.18;;;14.10;99.90;;;;;;5007775;28;20037;-63
2022/08/30 03:04:38;;;;;;;8.35;5.13;;;14.10;99.90;;;;;;5003449;28;20131;-63
2022/08/30 03:07:07;;;;;;;8.52;5.38;;;14.10;99.90;;;;;;5008002;28;20050;-63
2022/08/30 03:09:34;;;;;;;5.53;4.82;;;14.10;99.90;;;;;;5012995;28;20076;-62
2022/08/30 03:12:00;;;;;;;9.70;6.18;;;14.20;99.90;;;;;;5008890;28;20045;-63
2022/08/30 03:14:26;;;;;;;7.25;6.10;;;14.20;99.90;;;;;;5009725;28;20088;-63
2022/08/30 03:16:53;;;;;;;10.95;7.10;;;14.20;99.90;;;;;;5010680;28;20115;-63
2022/08/30 03:19:19;;;;;;;9.30;5.97;;;14.20;99.90;;;;;;5001848;28;20500;-63
2022/08/30 03:21:45;;;;;;;10.27;6.80;;;14.20;99.90;;;;;;5008324;28;20049;-63
2022/08/30 03:24:12;;;;;;;10.80;6.57;;;14.20;99.90;;;;;;5007575;28;20511;-63
2022/08/30 03:26:38;;;;;;;7.90;6.65;;;14.20;99.90;;;;;;5009841;28;20050;-62
2022/08/30 03:29:04;;;;;;;9.88;6.82;;;14.20;99.90;;;;;;5008716;28;20052;-63
2022/08/30 03:31:30;;;;;;;9.10;6.55;;;14.20;99.90;;;;;;5010820;28;20041;-63
2022/08/30 03:33:56;;;;;;;13.50;7.63;;;14.20;99.90;;;;;;5006833;28;20053;-63
2022/08/30 03:36:22;;;;;;;13.50;7.82;;;14.20;99.90;;;;;;5007155;28;20049;-63
2022/08/30 03:38:47;;;;;;;12.00;7.75;;;14.20;99.90;;;;;;5012845;28;20057;-63
2022/08/30 03:41:14;;;;;;;11.63;8.05;;;14.20;99.90;;;;;;5010791;28;20054;-63
2022/08/30 03:43:40;;;;;;;12.05;7.80;;;14.20;99.90;;;;;;5012365;28;20081;-62
2022/08/30 03:46:06;;;;;;;12.63;8.00;;;14.20;99.90;;;;;;5007288;28;20132;-63
2022/08/30 03:48:32;;;;;;;9.63;7.72;;;14.20;99.90;;;;;;4986746;28;20104;-63
2022/08/30 03:50:58;;;;;;;9.35;7.05;;;14.10;99.90;;;;;;5001267;28;20703;-63
2022/08/30 03:53:24;;;;;;;9.95;7.82;;;14.10;99.90;;;;;;4989683;28;20192;-63
2022/08/30 03:55:49;;;;;;;7.07;6.38;;;14.10;99.90;;;;;;5006570;28;20530;-63
2022/08/30 03:58:15;;;;;;;8.45;6.75;;;14.10;99.90;;;;;;5012617;28;20053;-62
2022/08/30 04:00:41;;;;;;;9.02;6.65;;;14.10;99.90;;;;;;5009983;28;20132;-63
2022/08/30 04:03:07;;;;;;;8.48;6.43;;;14.00;99.90;;;;;;4989616;28;20053;-63
2022/08/30 04:05:33;;;;;;;9.55;5.68;;;14.00;99.90;;;;;;4991533;28;20052;-63
2022/08/30 04:07:59;;;;;;;7.53;5.60;;;14.00;99.90;;;;;;5007714;28;20057;-63
2022/08/30 04:10:25;;;;;;;7.82;5.03;;;14.00;99.90;;;;;;5006010;28;20484;-63
2022/08/30 04:12:51;;;;;;;5.32;4.80;;;14.00;99.90;;;;;;5012485;28;20151;-62
2022/08/30 04:15:18;;;;;;;8.55;4.70;;;13.90;99.90;;;;;;5009475;28;20041;-63
2022/08/30 04:17:44;;;;;;;7.75;4.55;;;13.90;99.90;;;;;;5008660;28;20049;-62
2022/08/30 04:20:10;;;;;;;7.30;4.28;;;13.90;99.90;;;;;;5026956;28;20064;-63
2022/08/30 04:22:36;;;;;;;8.63;4.18;;;13.90;99.90;;;;;;5008285;28;20046;-63
2022/08/30 04:25:03;;;;;;;6.50;4.43;;;13.90;99.90;;;;;;5005414;28;20060;-63
2022/08/30 04:27:29;;;;;;;5.45;4.20;;;13.90;99.90;;;;;;5007740;28;20524;-62
2022/08/30 04:29:55;;;;;;;7.20;4.45;;;13.80;99.90;;;;;;4991107;28;20045;-63
2022/08/30 04:32:21;;;;;;;6.55;4.13;;;13.80;99.90;;;;;;5006765;28;20063;-63
2022/08/30 04:34:47;;;;;;;5.47;3.70;;;13.80;99.90;;;;;;5007305;28;20045;-62
2022/08/30 04:37:13;;;;;;;4.97;3.67;;;13.70;99.90;;;;;;4991937;28;20194;-62
2022/08/30 04:39:41;;;;;;;5.10;4.13;;;13.70;99.90;;;;;;5006675;28;20052;-63
2022/08/30 04:42:10;;;;;;;5.28;3.70;;;13.70;99.90;;;;;;5011260;28;20072;-63
2022/08/30 04:44:36;;;;;;;5.30;3.50;;;13.70;99.90;;;;;;5006712;28;20056;-63
2022/08/30 04:47:01;;;;;;;5.85;3.80;;;13.70;99.90;;;;;;5006744;28;20057;-63
2022/08/30 04:49:27;;;;;;;4.30;3.63;;;13.60;99.90;;;;;;5003477;28;20084;-62
2022/08/30 04:51:54;;;;;;;4.80;3.53;;;13.60;99.90;;;;;;5009997;28;20060;-63
2022/08/30 04:54:20;;;;;;;4.47;3.33;;;13.60;99.90;;;;;;5001991;28;20175;-63
2022/08/30 04:56:46;;;;;;;4.45;3.50;;;13.50;99.90;;;;;;5024030;28;20167;-63
2022/08/30 04:59:12;;;;;;;5.18;3.75;;;13.50;99.90;;;;;;5007487;28;21834;-63
2022/08/30 05:01:39;;;;;;;6.10;3.60;;;13.50;99.90;;;;;;4993347;28;20554;-63
2022/08/30 05:04:06;;;;;;;4.80;3.25;;;13.50;99.90;;;;;;5001700;28;20496;-63
2022/08/30 05:06:31;;;;;;;4.78;3.50;;;13.50;99.90;;;;;;4999790;28;20045;-63
2022/08/30 05:08:59;;;;;;;4.45;4.00;;;13.50;99.90;;;;;;4984331;28;20061;-62
2022/08/30 05:11:25;;;;;;;7.80;4.00;;;13.50;99.90;;;;;;4973308;28;20042;-62
2022/08/30 05:13:51;;;;;;;9.05;4.55;;;13.40;99.90;;;;;;5000538;28;20073;-62
2022/08/30 05:16:18;;;;;;;7.43;3.92;;;13.40;99.90;;;;;;5002105;28;20128;-63
2022/08/30 05:18:48;;;;;;;6.40;4.80;;;13.40;99.90;;;;;;5004350;28;20131;-62
2022/08/30 05:21:32;;;;;;;5.93;4.60;;;13.40;99.90;;;;;;5000347;28;20048;-63
2022/08/30 05:24:00;;;;;;;7.85;5.07;;;13.40;99.90;;;;;;5011396;28;20069;-63
2022/08/30 05:26:31;;;;;;;6.10;4.88;;;13.40;99.90;;;;;;5013321;28;20198;-62
2022/08/30 05:28:57;;;;;;;8.27;5.57;;;13.40;99.90;;;;;;5010862;28;20176;-62
2022/08/30 05:31:27;;;;;;;9.30;5.82;;;13.40;99.90;;;;;;5002818;28;20530;-63
2022/08/30 05:33:54;;;;;;;7.03;5.15;;;13.40;99.90;;;;;;4999442;28;20085;-63
2022/08/30 05:36:22;;;;;;;7.05;5.43;;;13.40;99.90;;;;;;5004492;28;20132;-63
2022/08/30 05:38:49;;;;;;;7.80;4.75;;;13.50;99.90;;;;;;5007801;28;20472;-63
2022/08/30 05:41:18;;;;;;;6.85;5.40;;;13.50;99.90;;;;;;5003262;28;20796;-63
2022/08/30 05:43:43;;;;;;;9.60;5.55;;;13.50;99.90;;;;;;5009256;28;20154;-62
2022/08/30 05:46:11;;;;;;;6.35;4.97;;;13.50;99.90;;;;;;5005911;28;20432;-63
2022/08/30 05:48:38;;;;;;;9.70;5.63;;;13.50;99.90;;;;;;5005081;28;20713;-64
2022/08/30 05:51:11;;;;;;;6.65;5.00;;;13.50;99.90;;;;;;5013616;28;20176;-62
2022/08/30 05:53:37;;;;;;;7.90;5.50;;;13.60;99.90;;;;;;5013867;28;20049;-63
2022/08/30 05:56:06;;;;;;;9.23;5.63;;;13.60;99.90;;;;;;4997264;28;20088;-62
2022/08/30 05:58:33;;;;;;;9.07;5.80;;;13.70;99.90;;;;;;5019122;28;20048;-63
2022/08/30 06:00:59;;;;;;;7.95;5.30;;;13.70;99.90;;;;;;5014148;28;20064;-63
2022/08/30 06:03:25;;;;;;;7.57;4.93;;;13.70;99.90;;;;;;5000814;28;20510;-63
2022/08/30 06:05:51;;;;;;;11.07;5.60;;;13.80;99.90;;;;;;5014241;28;20052;-62
2022/08/30 06:08:17;;;;;;;8.63;5.30;;;13.80;99.90;;;;;;5009924;28;20061;-63
2022/08/30 06:10:43;;;;;;;9.55;5.60;;;13.90;99.90;;;;;;5006529;28;20118;-63
2022/08/30 06:13:09;;;;;;;8.20;5.20;;;13.90;99.90;;;;;;5000383;28;20127;-62
2022/08/30 06:15:35;;;;;;;8.85;5.32;;;14.00;99.90;;;;;;5011082;28;20049;-57
2022/08/30 06:18:02;;;;;;;6.35;5.00;;;14.10;99.90;;;;;;5015090;28;20507;-56
2022/08/30 06:20:29;;;;;;;9.38;4.82;;;14.10;99.90;;;;;;5017855;28;20045;-57
2022/08/30 06:22:54;;;;;;;5.97;5.28;;;14.20;99.90;;;;;;5021994;28;20088;-57
2022/08/30 06:25:20;;;;;;;7.90;4.75;;;14.30;99.90;;;;;;5022050;28;20057;-58
2022/08/30 06:27:46;;;;;;;6.68;5.03;;;14.30;99.90;;;;;;5020995;28;20053;-56
2022/08/30 06:30:12;;;;;;;8.75;5.00;;;14.40;99.90;;;;;;5020568;28;20034;-56
2022/08/30 06:32:38;;;;;;;8.57;4.70;;;14.50;99.90;;;;;;5020239;28;20046;-57
2022/08/30 06:35:06;;;;;;;6.25;4.55;;;14.50;99.90;;;;;;5021621;28;20064;-58
2022/08/30 06:37:33;;;;;;;9.80;4.60;;;14.60;99.90;;;;;;5019647;28;20489;-56
2022/08/30 06:40:01;;;;;;;8.43;4.53;;;14.70;99.90;;;;;;5021313;28;20857;-58
2022/08/30 06:42:30;;;;;;;6.18;4.32;;;14.80;99.90;;;;;;5017949;28;20083;-57
2022/08/30 06:44:57;;;;;;;7.75;4.30;;;14.90;99.90;;;;;;5021339;28;20049;-57
2022/08/30 06:47:23;;;;;;;6.60;4.38;;;15.00;99.90;;;;;;5020203;28;20045;-58
2022/08/30 06:49:49;;;;;;;7.53;4.28;;;15.00;99.90;;;;;;5022328;28;20037;-58
2022/08/30 06:52:15;;;;;;;5.90;4.07;;;15.10;99.90;;;;;;5019973;28;20052;-57
2022/08/30 06:54:41;;;;;;;7.07;3.45;;;15.20;99.90;;;;;;5018872;28;20077;-57
2022/08/30 06:57:07;;;;;;;10.77;3.50;;;15.30;99.90;;;;;;5021547;28;20046;-56
2022/08/30 06:59:32;;;;;;;6.20;3.50;;;15.40;99.90;;;;;;5018034;28;20049;-57
2022/08/30 07:01:58;;;;;;;4.82;3.15;;;15.50;99.90;;;;;;5020283;28;20107;-55
2022/08/30 07:04:25;;;;;;;4.93;2.72;;;15.60;99.90;;;;;;5018922;28;20042;-57
2022/08/30 07:06:52;;;;;;;5.38;2.78;;;15.70;99.90;;;;;;5020188;28;20160;-58
2022/08/30 07:09:18;;;;;;;7.13;2.55;;;15.80;99.90;;;;;;5018992;28;20672;-57
2022/08/30 07:11:43;;;;;;;4.07;2.58;;;15.90;99.90;;;;;;5020816;28;20073;-57
2022/08/30 07:14:09;;;;;;;2.95;2.20;;;16.00;99.90;;;;;;5019532;28;20674;-56
2022/08/30 07:16:35;;;;;;;5.05;2.33;;;16.10;99.90;;;;;;5022701;28;20064;-56
2022/08/30 07:19:04;;;;;;;2.85;2.00;;;16.20;99.90;;;;;;5017342;28;20499;-56
2022/08/30 07:21:42;;;;;;;3.13;2.13;;;16.30;99.90;;;;;;5018973;28;20040;-57
2022/08/30 07:24:10;;;;;;;6.60;1.95;;;16.40;99.90;;;;;;5019484;28;20053;-57
2022/08/30 07:26:40;;;;;;;5.10;2.00;;;16.50;99.90;;;;;;5021328;28;20053;-57
2022/08/30 07:29:07;;;;;;;6.07;1.77;;;16.70;99.90;;;;;;5014858;28;20047;-58
2022/08/30 07:31:34;;;;;;;5.22;1.88;;;16.80;99.90;;;;;;5021589;28;20892;-56
2022/08/30 07:34:05;;;;;;;1.88;1.40;;;16.90;99.90;;;;;;5016685;28;20042;-58
2022/08/30 07:36:32;;;;;;;5.40;1.95;;;17.00;99.90;;;;;;5019902;28;20052;-57
2022/08/30 07:38:58;;;;;;;4.38;1.52;;;17.20;99.90;;;;;;5019439;28;20045;-57
2022/08/30 07:41:28;;;;;;;3.75;2.05;;;17.30;99.90;;;;;;5021819;28;20053;-58
2022/08/30 07:43:55;;;;;;;6.07;1.60;;;17.40;99.90;;;;;;5018326;28;20041;-56
2022/08/30 07:46:22;;;;;;;4.00;1.50;;;17.50;99.90;;;;;;5020158;28;20270;-58
2022/08/30 07:48:48;;;;;;;5.85;1.60;;;17.70;99.90;;;;;;5017585;28;20072;-56
2022/08/30 07:51:20;;;;;;;7.25;1.52;;;17.70;99.90;;;;;;5017728;28;20083;-58
2022/08/30 07:53:46;;;;;;;3.88;1.30;;;17.80;99.90;;;;;;5018031;28;20053;-57
2022/08/30 07:56:12;;;;;;;4.47;1.50;;;17.90;99.90;;;;;;5019083;28;20516;-57
2022/08/30 07:58:38;;;;;;;2.85;1.45;;;18.00;99.90;;;;;;5019994;28;20041;-58
2022/08/30 08:01:06;;;;;;;3.53;1.40;;;18.20;99.90;;;;;;5017574;28;20049;-56
2022/08/30 08:03:33;;;;;;;2.65;1.40;;;18.30;99.90;;;;;;5020415;28;20483;-54
2022/08/30 08:06:01;;;;;;;5.90;1.40;;;18.40;99.90;;;;;;5017759;28;20096;-56
2022/08/30 08:08:27;;;;;;;3.53;1.40;;;18.40;99.90;;;;;;5033071;28;20061;-55
2022/08/30 08:10:53;;;;;;;3.20;1.30;;;18.50;99.90;;;;;;5019828;28;20045;-56
2022/08/30 08:13:19;;;;;;;1.95;1.42;;;18.60;99.80;;;;;;5021654;28;20049;-57
2022/08/30 08:15:44;;;;;;;7.68;1.58;;;18.70;99.80;;;;;;5018557;28;20049;-58
2022/08/30 08:18:10;;;;;;;2.03;1.30;;;18.90;99.50;;;;;;5019733;28;20049;-58
2022/08/30 08:20:36;;;;;;;3.67;1.20;;;19.00;99.30;;;;;;5020797;28;20056;-58
2022/08/30 08:23:03;;;;;;;7.78;1.75;;;19.10;98.80;;;;;;5019861;28;20052;-56
2022/08/30 08:25:30;;;;;;;3.40;1.17;;;19.20;98.20;;;;;;5018648;28;20080;-56
2022/08/30 08:27:56;;;;;;;3.17;1.52;;;19.30;97.90;;;;;;5015145;28;20049;-57
2022/08/30 08:30:23;;;;;;;2.05;1.40;;;19.30;97.40;;;;;;5019064;28;20538;-57
2022/08/30 08:32:49;;;;;;;3.88;1.27;;;19.40;97.10;;;;;;5021181;28;20119;-58
2022/08/30 08:35:17;;;;;;;5.35;1.40;;;19.40;96.90;;;;;;5019804;28;20495;-57
2022/08/30 08:37:43;;;;;;;3.00;1.40;;;19.60;96.70;;;;;;5019400;28;20162;-58
2022/08/30 08:40:15;;;;;;;3.92;1.45;;;19.70;96.00;;;;;;5019221;28;20057;-57
2022/08/30 08:43:06;;;;;;;3.67;1.20;;;19.70;95.50;;;;;;5018592;28;20037;-57
2022/08/30 08:45:54;;;;;;;4.38;1.33;;;19.80;95.70;;;;;;5017031;28;20049;-58
2022/08/30 08:48:31;;;;;;;2.05;1.30;;;19.90;95.20;;;;;;5018514;28;20049;-57
2022/08/30 08:53:51;;;;;;;2.45;1.30;;;20.20;94.30;;;;;;5020010;28;20049;-57
2022/08/30 08:56:20;;;;;;;2.10;1.42;;;20.30;94.20;;;;;;5018147;28;20160;-58
2022/08/30 08:58:50;;;;;;;2.45;1.40;;;20.40;93.90;;;;;;5019103;28;20056;-58
2022/08/30 09:01:19;;;;;;;4.93;1.15;;;20.40;93.40;;;;;;5018157;28;20492;-57
2022/08/30 09:03:46;;;;;;;4.18;1.55;;;20.30;93.30;;;;;;5020102;28;20049;-58
2022/08/30 09:06:37;;;;;;;2.53;1.23;;;20.20;93.10;;;;;;5019272;28;20045;-57
2022/08/30 09:09:03;;;;;;;3.30;1.50;;;20.30;93.10;;;;;;5017273;28;20075;-57
2022/08/30 09:11:32;;;;;;;4.00;1.60;;;20.30;92.50;;;;;;5019931;28;20045;-57
2022/08/30 09:13:58;;;;;;;4.43;1.90;;;20.30;92.40;;;;;;5018851;28;20046;-56
2022/08/30 09:17:00;;;;;;;3.25;1.40;;;20.40;92.40;;;;;;5018120;28;20118;-56
2022/08/30 09:19:34;;;;;;;4.80;1.58;;;20.60;92.50;;;;;;5018584;28;20045;-57
2022/08/30 09:22:05;;;;;;;3.45;1.30;;;20.80;92.00;;;;;;5017590;28;20045;-58
2022/08/30 09:24:41;;;;;;;3.45;1.50;;;21.00;92.00;;;;;;5018141;28;20087;-56
2022/08/30 09:27:14;;;;;;;7.55;1.45;;;21.00;91.30;;;;;;5017791;28;20049;-58
2022/08/30 09:29:53;;;;;;;8.60;1.58;;;21.10;90.90;;;;;;5024306;28;20048;-58
2022/08/30 09:32:31;;;;;;;2.13;1.30;;;21.10;89.80;;;;;;5021165;28;20037;-56
2022/08/30 09:34:58;;;;;;;4.45;1.35;;;21.20;89.20;;;;;;5024567;28;20041;-57
2022/08/30 09:37:28;;;;;;;1.63;1.17;;;21.30;88.30;;;;;;5022619;28;20484;-62
2022/08/30 09:39:55;;;;;;;2.15;1.20;;;21.40;87.30;;;;;;5021964;28;20131;-58
2022/08/30 09:42:25;;;;;;;8.93;1.48;;;21.50;85.50;;;;;;5021880;28;20507;-57
2022/08/30 09:45:09;;;;;;;6.50;1.65;;;21.50;84.50;;;;;;5024205;28;20045;-56
2022/08/30 09:47:39;;;;;;;4.68;1.30;;;21.50;83.80;;;;;;5023016;28;20052;-58
2022/08/30 09:50:09;;;;;;;4.57;1.20;;;21.70;83.60;;;;;;5036552;28;20045;-57
2022/08/30 09:53:13;;;;;;;4.38;1.38;;;21.80;83.30;;;;;;5024086;28;20068;-58
2022/08/30 09:55:55;;;;;;;2.20;1.42;;;22.00;83.40;;;;;;5021387;28;20116;-57
2022/08/30 09:58:51;;;;;;;2.25;1.45;;;22.10;82.10;;;;;;5023714;28;20045;-58
2022/08/30 10:01:29;;;;;;;1.42;1.10;;;22.10;82.10;;;;;;5020241;28;20400;-57
2022/08/30 10:04:03;;;;;;;2.10;1.27;;;22.00;81.20;;;;;;5022480;28;20094;-58
2022/08/30 10:06:35;;;;;;;2.72;1.05;;;22.10;80.80;;;;;;5020966;28;20045;-57
2022/08/30 10:09:14;;;;;;;2.87;1.33;;;22.20;80.30;;;;;;5019994;28;20093;-57
2022/08/30 10:12:08;;;;;;;6.15;1.20;;;22.30;79.50;;;;;;5023475;28;20045;-58
2022/08/30 10:15:01;;;;;;;3.80;1.20;;;22.30;77.50;;;;;;5021870;28;20124;-57
2022/08/30 10:18:03;;;;;;;2.15;1.08;;;22.10;78.90;;;;;;5023030;28;20048;-58
2022/08/30 10:20:54;;;;;;;3.35;1.20;;;22.10;80.00;;;;;;5018865;28;20055;-59
2022/08/30 10:23:26;;;;;;;5.60;1.15;;;22.30;79.60;;;;;;5021170;28;20048;-58
2022/08/30 10:25:56;;;;;;;6.15;1.20;;;22.40;77.00;;;;;;5021135;28;20057;-58
2022/08/30 10:28:47;;;;;;;3.17;0.82;;;22.20;76.90;;;;;;5020796;28;20049;-58
2022/08/30 10:31:21;;;;;;;2.25;1.00;;;22.10;76.40;;;;;;5018782;28;20452;-58
2022/08/30 10:33:52;;;;;;;2.70;1.02;;;22.00;76.40;;;;;;5020866;28;20133;-58
2022/08/30 10:36:26;;;;;;;2.70;1.10;;;22.00;76.80;;;;;;5018464;28;20041;-56
2022/08/30 10:38:54;;;;;;;1.73;1.00;;;22.20;78.20;;;;;;5020555;28;20052;-58
2022/08/30 10:41:39;;;;;;;1.88;1.00;;;22.40;77.70;;;;;;5024064;28;20103;-58
2022/08/30 10:44:14;;;;;;;2.75;0.95;;;22.70;76.50;;;;;;5037147;28;20087;-58
2022/08/30 10:47:09;;;;;;;3.58;0.90;;;23.00;76.90;;;;;;5022470;28;20049;-58
2022/08/30 10:49:44;;;;;;;2.08;0.82;;;23.30;75.60;;;;;;5011247;28;20058;-58
2022/08/30 10:52:22;;;;;;;4.40;1.13;;;23.70;72.90;;;;;;5021026;28;20133;-58
2022/08/30 10:55:04;;;;;;;2.70;1.20;;;23.90;72.40;;;;;;5021420;28;20053;-57
2022/08/30 10:57:30;;;;;;;10.43;1.10;;;24.10;72.60;;;;;;5012871;28;20054;-58
2022/08/30 11:00:01;;;;;;;4.30;1.10;;;24.10;71.70;;;;;;5012148;28;20426;-56
2022/08/30 11:02:45;;;;;;;4.78;1.00;;;24.10;71.80;;;;;;5018613;28;20044;-56
2022/08/30 11:05:27;;;;;;;3.40;0.98;;;24.00;71.40;;;;;;5016175;28;20384;-56
2022/08/30 11:08:10;;;;;;;1.88;1.10;;;23.80;71.20;;;;;;5015834;28;20041;-58
2022/08/30 11:10:57;;;;;;;3.90;1.27;;;23.80;71.70;;;;;;5017896;28;20098;-58
2022/08/30 11:13:27;;;;;;;6.28;1.60;;;23.60;71.10;;;;;;5017469;28;20148;-58
2022/08/30 11:16:14;;;;;;;6.32;1.27;;;23.40;71.10;;;;;;5017261;28;20125;-56
2022/08/30 11:18:53;;;;;;;7.50;1.30;;;23.50;72.40;;;;;;5015142;28;20049;-56
2022/08/30 11:21:35;;;;;;;2.75;1.02;;;23.80;69.90;;;;;;5015504;28;20084;-58
2022/08/30 11:24:04;;;;;;;2.88;1.13;;;24.00;69.80;;;;;;5017064;28;20132;-58
2022/08/30 11:26:45;;;;;;;4.53;1.10;;;24.30;69.40;;;;;;5012912;28;20083;-56
2022/08/30 11:29:42;;;;;;;2.65;0.90;;;24.40;70.10;;;;;;5018269;28;20103;-57
2022/08/30 11:32:11;;;;;;;2.30;1.13;;;24.50;69.90;;;;;;5019210;28;20048;-58
2022/08/30 11:34:46;;;;;;;1.30;1.00;;;24.70;69.10;;;;;;5010189;28;20037;-57
2022/08/30 11:37:43;;;;;;;5.43;1.50;;;24.90;67.50;;;;;;5005383;28;20057;-58
2022/08/30 11:40:24;;;;;;;4.13;1.00;;;24.90;67.60;;;;;;5008235;28;20072;-58
2022/08/30 11:42:53;;;;;;;2.13;1.43;;;24.80;65.60;;;;;;5019332;28;20060;-58
2022/08/30 11:45:21;;;;;;;2.80;1.00;;;24.70;65.80;;;;;;5014757;28;20038;-57
2022/08/30 11:48:06;;;;;;;4.30;0.93;;;24.70;65.10;;;;;;5019119;28;20049;-58
2022/08/30 11:50:52;;;;;;;1.65;1.00;;;24.80;65.90;;;;;;5017162;28;20331;-57
2022/08/30 11:53:40;;;;;;;4.00;1.00;;;25.20;66.30;;;;;;5019772;28;20479;-58
2022/08/30 11:56:17;;;;;;;1.60;0.98;;;25.40;66.20;;;;;;5015360;28;20065;-58
2022/08/30 11:58:49;;;;;;;1.25;1.00;;;25.30;65.90;;;;;;5020610;28;20052;-56
2022/08/30 12:01:25;;;;;;;2.00;1.05;;;25.20;64.60;;;;;;5016430;28;20495;-58
2022/08/30 12:04:25;;;;;;;2.42;1.00;;;25.20;64.90;;;;;;5014806;28;20092;-55
2022/08/30 12:06:59;;;;;;;3.80;1.02;;;25.40;65.00;;;;;;5013277;28;20041;-57
2022/08/30 12:09:28;;;;;;;1.45;0.90;;;25.40;63.90;;;;;;5014742;28;20052;-59
2022/08/30 12:12:26;;;;;;;2.15;1.20;;;25.60;64.50;;;;;;5013433;28;20670;-58
2022/08/30 12:14:56;;;;;;;5.53;1.20;;;25.60;63.70;;;;;;5016946;28;20041;-59
2022/08/30 12:20:41;;;;;;;3.33;1.10;;;25.70;63.60;;;;;;5018269;28;20045;-59
2022/08/30 12:23:22;;;;;;;5.57;0.98;;;25.70;63.80;;;;;;5015438;28;20077;-58
2022/08/30 12:25:48;;;;;;;2.08;1.23;;;25.60;64.50;;;;;;5011766;28;20053;-57
2022/08/30 12:28:25;;;;;;;1.60;1.05;;;25.40;64.00;;;;;;5013589;28;20097;-58
2022/08/30 12:30:52;;;;;;;2.28;1.00;;;25.50;64.80;;;;;;5012905;28;20547;-58
2022/08/30 12:33:31;;;;;;;5.07;1.40;;;25.60;65.30;;;;;;5015236;28;20049;-56
2022/08/30 12:36:00;;;;;;;3.55;1.00;;;25.70;64.40;;;;;;5016394;28;22051;-58
2022/08/30 12:38:28;;;;;;;2.78;1.10;;;25.70;62.90;;;;;;5011219;28;20045;-58
2022/08/30 12:41:00;;;;;;;4.28;1.48;;;25.70;63.90;;;;;;5020603;28;20056;-59
2022/08/30 12:43:46;;;;;;;2.38;1.00;;;25.80;63.70;;;;;;5010050;28;20064;-57
2022/08/30 12:46:15;;;;;;;2.05;1.00;;;25.60;63.10;;;;;;5011539;28;20041;-57
2022/08/30 12:48:42;;;;;;;3.05;1.20;;;25.20;63.90;;;;;;5020550;28;20049;-59
2022/08/30 12:51:26;;;;;;;2.45;1.05;;;25.30;64.10;;;;;;5015809;28;20223;-58
2022/08/30 12:53:52;;;;;;;2.50;1.23;;;25.50;65.30;;;;;;5016523;28;20038;-57
2022/08/30 12:56:17;;;;;;;9.27;1.27;;;25.80;64.20;;;;;;5010790;28;20064;-58
2022/08/30 12:58:54;;;;;;;2.53;1.05;;;26.00;62.70;;;;;;5010868;28;20045;-58
2022/08/30 13:01:31;;;;;;;1.75;1.10;;;26.30;63.20;;;;;;5010944;28;20046;-56
2022/08/30 13:04:19;;;;;;;5.68;1.40;;;26.40;62.40;;;;;;5012595;28;20126;-58
2022/08/30 13:07:02;;;;;;;2.35;1.15;;;26.10;62.20;;;;;;5012228;28;20049;-58
2022/08/30 13:09:39;;;;;;;6.03;1.33;;;25.70;62.60;;;;;;5011714;28;20048;-57